createdAt,value
2022-07-30T00:01:34.394Z,58.28
2022-07-30T00:04:03.074Z,58.93
2022-07-30T00:06:30.097Z,59.64
2022-07-30T00:08:56.770Z,59.84
2022-07-30T00:11:27.340Z,59.82
2022-07-30T00:13:54.644Z,59.63
2022-07-30T00:16:21.760Z,59.75
2022-07-30T00:18:48.503Z,60.12
2022-07-30T00:21:20.197Z,59.87
2022-07-30T00:24:02.520Z,60.11
2022-07-30T00:26:29.369Z,60.00
2022-07-30T00:28:56.657Z,60.02
2022-07-30T00:31:23.322Z,59.85
2022-07-30T00:33:50.021Z,59.63
2022-07-30T00:36:16.928Z,59.44
2022-07-30T00:38:43.702Z,59.75
2022-07-30T00:41:10.500Z,60.54
2022-07-30T00:43:37.237Z,61.72
2022-07-30T00:46:04.182Z,62.74
2022-07-30T00:48:31.032Z,63.42
2022-07-30T00:50:57.798Z,63.62
2022-07-30T00:53:24.591Z,63.62
2022-07-30T00:55:51.482Z,63.53
2022-07-30T00:58:18.181Z,63.32
2022-07-30T01:00:45.120Z,63.02
2022-07-30T01:03:11.860Z,62.68
2022-07-30T01:05:38.468Z,62.86
2022-07-30T01:08:05.075Z,62.66
2022-07-30T01:10:31.719Z,62.67
2022-07-30T01:12:59.306Z,63.13
2022-07-30T01:15:27.105Z,63.22
2022-07-30T01:17:56.885Z,62.96
2022-07-30T01:20:28.853Z,62.83
2022-07-30T01:23:08.244Z,63.16
2022-07-30T01:25:56.220Z,63.42
2022-07-30T01:28:31.349Z,63.37
2022-07-30T01:30:59.201Z,63.38
2022-07-30T01:33:27.909Z,63.42
2022-07-30T01:35:56.835Z,63.21
2022-07-30T01:38:25.639Z,63.26
2022-07-30T01:40:54.757Z,63.04
2022-07-30T01:43:24.064Z,63.09
2022-07-30T01:45:53.238Z,62.98
2022-07-30T01:48:22.417Z,62.95
2022-07-30T01:50:52.728Z,63.11
2022-07-30T01:53:24.032Z,62.93
2022-07-30T01:55:51.987Z,62.79
2022-07-30T01:58:21.741Z,62.81
2022-07-30T02:00:50.873Z,62.88
2022-07-30T02:03:18.396Z,63.04
2022-07-30T02:05:52.539Z,63.26
2022-07-30T02:08:35.227Z,63.50
2022-07-30T02:11:07.615Z,63.83
2022-07-30T02:13:43.680Z,63.67
2022-07-30T02:16:31.702Z,63.92
2022-07-30T02:19:06.776Z,63.83
2022-07-30T02:21:37.856Z,64.03
2022-07-30T02:24:18.397Z,64.20
2022-07-30T02:26:49.610Z,64.94
2022-07-30T02:29:18.509Z,65.13
2022-07-30T02:31:45.875Z,65.46
2022-07-30T02:34:14.115Z,65.15
2022-07-30T02:36:43.384Z,65.32
2022-07-30T02:39:15.061Z,65.64
2022-07-30T02:41:49.232Z,65.29
2022-07-30T02:44:20.352Z,65.36
2022-07-30T02:46:49.499Z,65.30
2022-07-30T02:49:19.623Z,65.19
2022-07-30T02:51:48.396Z,65.20
2022-07-30T02:54:17.874Z,66.32
2022-07-30T02:56:47.803Z,66.23
2022-07-30T02:59:16.399Z,66.34
2022-07-30T03:01:44.229Z,66.76
2022-07-30T03:04:12.061Z,66.55
2022-07-30T03:06:40.491Z,66.47
2022-07-30T03:09:09.931Z,66.57
2022-07-30T03:11:37.187Z,66.93
2022-07-30T03:14:03.952Z,67.69
2022-07-30T03:16:33.649Z,67.85
2022-07-30T03:19:02.738Z,67.68
2022-07-30T03:21:35.763Z,67.85
2022-07-30T03:24:05.156Z,68.10
2022-07-30T03:26:33.761Z,68.65
2022-07-30T03:29:01.605Z,69.02
2022-07-30T03:31:36.524Z,69.19
2022-07-30T03:34:06.500Z,68.79
2022-07-30T03:36:35.041Z,68.92
2022-07-30T03:39:03.273Z,69.03
2022-07-30T03:41:31.304Z,69.07
2022-07-30T03:43:59.856Z,69.05
2022-07-30T03:46:27.943Z,68.60
2022-07-30T03:48:55.278Z,68.89
2022-07-30T03:51:22.248Z,69.06
2022-07-30T03:53:51.620Z,69.52
2022-07-30T03:56:18.541Z,69.45
2022-07-30T03:58:45.496Z,69.29
2022-07-30T04:01:12.544Z,68.83
2022-07-30T04:03:39.542Z,69.29
2022-07-30T04:06:06.479Z,69.16
2022-07-30T04:08:33.216Z,69.44
2022-07-30T04:10:59.873Z,69.42
2022-07-30T04:13:26.507Z,69.32
2022-07-30T04:16:40.882Z,69.77
2022-07-30T04:18:53.740Z,70.19
2022-07-30T04:21:23.225Z,69.72
2022-07-30T04:24:04.474Z,69.82
2022-07-30T04:26:36.949Z,69.71
2022-07-30T04:29:07.315Z,69.69
2022-07-30T04:31:38.474Z,69.82
2022-07-30T04:34:08.102Z,69.70
2022-07-30T04:36:35.935Z,69.58
2022-07-30T04:39:04.138Z,71.05
2022-07-30T04:41:35.419Z,72.81
2022-07-30T04:44:16.392Z,74.76
2022-07-30T04:46:43.106Z,76.46
2022-07-30T04:49:11.630Z,77.12
2022-07-30T04:51:38.694Z,77.64
2022-07-30T04:54:09.005Z,78.34
2022-07-30T04:56:50.192Z,78.50
2022-07-30T04:59:23.714Z,78.23
2022-07-30T05:01:52.521Z,77.97
2022-07-30T05:04:22.653Z,77.25
2022-07-30T05:06:50.061Z,77.07
2022-07-30T05:09:17.679Z,77.09
2022-07-30T05:11:51.328Z,76.65
2022-07-30T05:14:18.010Z,76.17
2022-07-30T05:16:44.651Z,76.02
2022-07-30T05:19:11.924Z,76.06
2022-07-30T05:21:38.580Z,76.06
2022-07-30T05:24:06.191Z,75.77
2022-07-30T05:26:33.026Z,75.50
2022-07-30T05:28:59.691Z,74.27
2022-07-30T05:31:26.426Z,71.93
2022-07-30T05:33:57.530Z,71.04
2022-07-30T05:36:27.096Z,71.06
2022-07-30T05:38:53.783Z,70.41
2022-07-30T05:41:32.235Z,70.30
2022-07-30T05:44:00.809Z,70.03
2022-07-30T05:46:28.058Z,69.45
2022-07-30T05:48:54.777Z,69.62
2022-07-30T05:51:22.305Z,69.10
2022-07-30T05:53:49.348Z,69.12
2022-07-30T05:56:16.445Z,69.67
2022-07-30T05:58:43.539Z,69.88
2022-07-30T06:01:10.258Z,69.81
2022-07-30T06:03:38.734Z,69.37
2022-07-30T06:06:05.723Z,69.05
2022-07-30T06:08:32.479Z,68.57
2022-07-30T06:10:59.331Z,68.45
2022-07-30T06:13:26.105Z,68.37
2022-07-30T06:15:52.910Z,68.35
2022-07-30T06:18:19.920Z,67.36
2022-07-30T06:20:54.496Z,67.68
2022-07-30T06:23:21.934Z,67.05
2022-07-30T06:25:49.003Z,67.56
2022-07-30T06:28:36.432Z,67.31
2022-07-30T06:31:03.491Z,67.35
2022-07-30T06:33:30.224Z,67.50
2022-07-30T06:35:56.838Z,65.47
2022-07-30T06:38:23.485Z,64.89
2022-07-30T06:40:50.264Z,64.21
2022-07-30T06:43:19.066Z,63.62
2022-07-30T06:45:45.752Z,63.04
2022-07-30T06:48:12.415Z,63.30
2022-07-30T06:50:39.049Z,61.97
2022-07-30T06:53:05.586Z,61.67
2022-07-30T06:55:32.143Z,60.84
2022-07-30T06:57:58.834Z,60.46
2022-07-30T07:00:25.533Z,59.74
2022-07-30T07:02:52.074Z,59.77
2022-07-30T07:05:18.889Z,58.99
2022-07-30T07:07:56.581Z,58.90
2022-07-30T07:10:25.841Z,57.54
2022-07-30T07:12:52.528Z,56.80
2022-07-30T07:15:19.341Z,56.94
2022-07-30T07:17:49.145Z,57.94
2022-07-30T07:20:15.781Z,56.13
2022-07-30T07:22:42.343Z,55.47
2022-07-30T07:25:09.232Z,55.10
2022-07-30T07:27:37.239Z,54.52
2022-07-30T07:30:06.219Z,54.20
2022-07-30T07:32:34.663Z,55.03
2022-07-30T07:35:01.728Z,53.81
2022-07-30T07:37:28.381Z,54.52
2022-07-30T07:39:54.971Z,54.52
2022-07-30T07:42:22.200Z,53.51
2022-07-30T07:44:48.899Z,53.66
2022-07-30T07:47:15.534Z,53.23
2022-07-30T07:49:42.237Z,53.73
2022-07-30T07:52:09.215Z,53.30
2022-07-30T07:54:36.223Z,52.37
2022-07-30T07:57:10.515Z,51.24
2022-07-30T07:59:41.462Z,51.34
2022-07-30T08:02:08.939Z,51.96
2022-07-30T08:04:36.707Z,50.96
2022-07-30T08:07:04.391Z,50.33
2022-07-30T08:09:42.637Z,49.81
2022-07-30T08:12:12.294Z,49.63
2022-07-30T08:14:39.201Z,48.63
2022-07-30T08:17:06.377Z,47.60
2022-07-30T08:19:34.071Z,47.08
2022-07-30T08:22:00.741Z,46.81
2022-07-30T08:24:27.559Z,45.55
2022-07-30T08:26:54.439Z,45.52
2022-07-30T08:29:21.245Z,44.86
2022-07-30T08:31:50.644Z,45.22
2022-07-30T08:34:18.202Z,44.61
2022-07-30T08:36:44.978Z,44.36
2022-07-30T08:39:14.369Z,42.37
2022-07-30T08:41:42.412Z,41.11
2022-07-30T08:44:13.096Z,41.49
2022-07-30T08:46:42.525Z,41.67
2022-07-30T08:49:16.039Z,40.90
2022-07-30T08:51:42.786Z,41.67
2022-07-30T08:54:10.029Z,40.44
2022-07-30T08:56:37.260Z,40.31
2022-07-30T08:59:04.466Z,39.15
2022-07-30T09:01:31.044Z,38.78
2022-07-30T09:03:57.919Z,37.67
2022-07-30T09:06:24.615Z,37.79
2022-07-30T09:08:51.185Z,37.16
2022-07-30T09:11:17.842Z,38.71
2022-07-30T09:13:45.121Z,35.93
2022-07-30T09:16:24.058Z,34.74
2022-07-30T09:18:51.879Z,35.45
2022-07-30T09:21:27.462Z,34.01
2022-07-30T09:23:58.130Z,34.25
2022-07-30T09:26:25.305Z,34.17
2022-07-30T09:28:52.840Z,32.51
2022-07-30T09:31:20.726Z,32.29
2022-07-30T09:33:47.967Z,31.22
2022-07-30T09:36:17.312Z,31.29
2022-07-30T09:38:53.915Z,30.93
2022-07-30T09:41:39.815Z,30.24
2022-07-30T09:44:07.347Z,28.81
2022-07-30T09:46:51.916Z,28.16
2022-07-30T09:49:21.187Z,28.49
2022-07-30T09:51:56.663Z,27.32
2022-07-30T09:54:51.163Z,28.79
2022-07-30T09:57:26.538Z,28.38
2022-07-30T09:59:59.932Z,28.04
2022-07-30T10:02:32.520Z,27.76
2022-07-30T10:05:15.624Z,26.68
2022-07-30T10:08:02.587Z,26.47
2022-07-30T10:10:31.716Z,26.17
2022-07-30T10:13:04.458Z,24.61
2022-07-30T10:15:38.038Z,23.31
2022-07-30T10:18:06.694Z,23.10
2022-07-30T10:20:35.634Z,23.45
2022-07-30T10:23:07.786Z,24.45
2022-07-30T10:25:49.676Z,23.82
2022-07-30T10:28:24.087Z,24.75
2022-07-30T10:30:56.090Z,24.52
2022-07-30T10:33:35.187Z,23.21
2022-07-30T10:36:04.947Z,23.05
2022-07-30T10:38:39.079Z,23.68
2022-07-30T10:41:44.541Z,24.25
2022-07-30T10:44:40.718Z,22.90
2022-07-30T10:47:14.098Z,23.97
2022-07-30T10:49:43.323Z,23.53
2022-07-30T10:52:10.848Z,24.00
2022-07-30T10:54:45.254Z,23.26
2022-07-30T10:57:22.584Z,23.05
2022-07-30T11:00:03.939Z,24.28
2022-07-30T11:02:35.401Z,23.65
2022-07-30T11:05:17.791Z,23.04
2022-07-30T11:07:47.365Z,21.15
2022-07-30T11:10:37.539Z,22.52
2022-07-30T11:13:09.682Z,22.96
2022-07-30T11:16:08.789Z,22.67
2022-07-30T11:19:56.707Z,21.49
2022-07-30T11:22:44.471Z,19.87
2022-07-30T11:25:50.212Z,20.19
2022-07-30T11:28:40.974Z,22.38
2022-07-30T11:31:30.599Z,22.18
2022-07-30T11:34:20.347Z,21.91
2022-07-30T11:37:19.130Z,20.27
2022-07-30T11:39:55.277Z,20.20
2022-07-30T11:42:29.021Z,20.43
2022-07-30T11:45:18.141Z,19.91
2022-07-30T11:47:50.190Z,22.23
2022-07-30T11:50:27.545Z,20.81
2022-07-30T11:53:02.191Z,20.68
2022-07-30T11:55:38.936Z,21.55
2022-07-30T11:58:08.703Z,22.50
2022-07-30T12:00:41.185Z,23.05
2022-07-30T12:03:11.476Z,22.50
2022-07-30T12:05:38.887Z,21.10
2022-07-30T12:08:06.287Z,20.07
2022-07-30T12:10:35.974Z,20.39
2022-07-30T12:13:16.543Z,19.88
2022-07-30T12:15:46.224Z,19.86
2022-07-30T12:18:29.473Z,20.45
2022-07-30T12:21:16.323Z,20.28
2022-07-30T12:24:10.344Z,21.27
2022-07-30T12:26:37.214Z,19.56
2022-07-30T12:29:13.625Z,20.81
2022-07-30T12:31:41.647Z,20.36
2022-07-30T12:34:25.265Z,19.49
2022-07-30T12:36:53.038Z,19.57
2022-07-30T12:39:25.269Z,20.55
2022-07-30T12:41:53.843Z,20.49
2022-07-30T12:44:40.753Z,19.88
2022-07-30T12:47:20.351Z,20.93
2022-07-30T12:49:49.884Z,19.59
2022-07-30T12:52:41.417Z,18.75
2022-07-30T12:55:11.566Z,18.67
2022-07-30T12:58:07.621Z,18.97
2022-07-30T13:00:44.157Z,19.80
2022-07-30T13:03:27.947Z,19.66
2022-07-30T13:05:56.552Z,19.28
2022-07-30T13:08:51.210Z,19.12
2022-07-30T13:11:19.912Z,17.68
2022-07-30T13:13:47.692Z,18.47
2022-07-30T13:16:14.845Z,18.82
2022-07-30T13:18:42.211Z,18.28
2022-07-30T13:21:09.362Z,18.97
2022-07-30T13:23:36.976Z,18.32
2022-07-30T13:26:03.961Z,18.88
2022-07-30T13:28:32.062Z,18.24
2022-07-30T13:30:58.953Z,18.42
2022-07-30T13:33:25.920Z,19.48
2022-07-30T13:35:52.921Z,18.79
2022-07-30T13:38:19.604Z,18.31
2022-07-30T13:40:46.210Z,16.88
2022-07-30T13:43:12.815Z,17.17
2022-07-30T13:45:39.434Z,18.24
2022-07-30T13:48:06.330Z,18.28
2022-07-30T13:50:33.744Z,18.15
2022-07-30T13:53:02.489Z,17.78
2022-07-30T13:55:29.937Z,19.03
2022-07-30T13:57:57.136Z,18.13
2022-07-30T14:00:24.705Z,18.02
2022-07-30T14:02:51.638Z,18.50
2022-07-30T14:05:18.345Z,18.01
2022-07-30T14:07:45.144Z,19.79
2022-07-30T14:10:13.180Z,19.46
2022-07-30T14:12:40.148Z,19.73
2022-07-30T14:15:07.557Z,17.67
2022-07-30T14:17:34.402Z,18.29
2022-07-30T14:20:01.298Z,17.96
2022-07-30T14:22:28.032Z,18.24
2022-07-30T14:24:54.923Z,20.48
2022-07-30T14:27:21.716Z,20.42
2022-07-30T14:29:48.889Z,19.53
2022-07-30T14:32:18.656Z,18.56
2022-07-30T14:34:49.501Z,18.44
2022-07-30T14:37:16.943Z,19.28
2022-07-30T14:39:43.984Z,21.47
2022-07-30T14:42:11.316Z,19.31
2022-07-30T14:44:37.980Z,19.29
2022-07-30T14:47:05.373Z,19.42
2022-07-30T14:49:32.236Z,20.53
2022-07-30T14:51:59.075Z,21.15
2022-07-30T14:54:27.879Z,22.57
2022-07-30T14:56:58.201Z,22.46
2022-07-30T14:59:27.542Z,20.97
2022-07-30T15:01:55.488Z,22.00
2022-07-30T15:04:23.112Z,22.14
2022-07-30T15:06:49.930Z,21.82
2022-07-30T15:09:21.492Z,20.95
2022-07-30T15:12:23.686Z,19.85
2022-07-30T15:14:38.123Z,19.65
2022-07-30T15:17:06.069Z,19.98
2022-07-30T15:19:33.942Z,20.33
2022-07-30T15:22:02.400Z,21.97
2022-07-30T15:24:30.451Z,22.24
2022-07-30T15:26:57.214Z,21.79
2022-07-30T15:29:24.355Z,21.84
2022-07-30T15:31:55.649Z,22.37
2022-07-30T15:34:22.525Z,22.15
2022-07-30T15:36:49.179Z,22.64
2022-07-30T15:39:15.831Z,23.02
2022-07-30T15:41:42.689Z,21.74
2022-07-30T15:44:09.271Z,22.54
2022-07-30T15:46:36.169Z,23.22
2022-07-30T15:49:03.359Z,21.96
2022-07-30T15:51:32.634Z,21.51
2022-07-30T15:53:59.820Z,21.36
2022-07-30T15:56:28.634Z,21.68
2022-07-30T15:58:58.771Z,21.63
2022-07-30T16:01:25.706Z,22.59
2022-07-30T16:03:54.724Z,23.67
2022-07-30T16:06:21.641Z,23.42
2022-07-30T16:08:48.323Z,24.12
2022-07-30T16:11:14.883Z,24.11
2022-07-30T16:13:42.749Z,23.42
2022-07-30T16:16:09.373Z,22.93
2022-07-30T16:18:35.949Z,23.50
2022-07-30T16:21:02.664Z,24.32
2022-07-30T16:23:36.261Z,23.30
2022-07-30T16:26:03.847Z,24.04
2022-07-30T16:28:31.064Z,24.89
2022-07-30T16:30:58.365Z,25.01
2022-07-30T16:33:25.027Z,24.51
2022-07-30T16:35:54.992Z,24.87
2022-07-30T16:38:23.271Z,24.16
2022-07-30T16:40:50.675Z,24.62
2022-07-30T16:43:19.722Z,23.90
2022-07-30T16:45:47.255Z,24.57
2022-07-30T16:48:14.057Z,25.95
2022-07-30T16:50:42.291Z,26.05
2022-07-30T16:53:13.784Z,26.06
2022-07-30T16:55:41.807Z,25.25
2022-07-30T16:58:09.312Z,25.94
2022-07-30T17:00:37.059Z,26.53
2022-07-30T17:03:04.129Z,26.43
2022-07-30T17:05:31.128Z,26.83
2022-07-30T17:07:58.379Z,26.99
2022-07-30T17:10:26.681Z,26.57
2022-07-30T17:12:57.050Z,27.08
2022-07-30T17:15:32.241Z,26.02
2022-07-30T17:18:03.135Z,27.43
2022-07-30T17:20:30.563Z,27.56
2022-07-30T17:22:57.517Z,27.04
2022-07-30T17:25:27.952Z,26.98
2022-07-30T17:27:58.538Z,26.76
2022-07-30T17:30:27.417Z,26.95
2022-07-30T17:32:54.206Z,27.17
2022-07-30T17:35:21.310Z,27.57
2022-07-30T17:37:48.020Z,27.33
2022-07-30T17:40:27.454Z,28.24
2022-07-30T17:43:03.520Z,28.10
2022-07-30T17:45:31.163Z,28.14
2022-07-30T17:47:58.018Z,28.81
2022-07-30T17:50:24.888Z,28.11
2022-07-30T17:52:51.614Z,28.80
2022-07-30T17:55:18.372Z,29.35
2022-07-30T17:57:45.135Z,29.39
2022-07-30T18:00:12.749Z,29.65
2022-07-30T18:02:39.503Z,29.81
2022-07-30T18:05:06.781Z,30.06
2022-07-30T18:07:33.497Z,30.32
2022-07-30T18:10:00.237Z,30.80
2022-07-30T18:12:27.073Z,30.41
2022-07-30T18:14:55.160Z,30.43
2022-07-30T18:17:21.959Z,30.82
2022-07-30T18:19:48.833Z,30.86
2022-07-30T18:22:16.026Z,32.33
2022-07-30T18:24:55.114Z,33.61
2022-07-30T18:27:21.943Z,33.96
2022-07-30T18:29:48.785Z,34.41
2022-07-30T18:32:15.710Z,33.77
2022-07-30T18:34:42.418Z,34.14
2022-07-30T18:37:10.227Z,34.34
2022-07-30T18:39:37.090Z,35.26
2022-07-30T18:42:04.452Z,35.34
2022-07-30T18:44:31.701Z,35.25
2022-07-30T18:46:58.663Z,35.31
2022-07-30T18:49:40.884Z,35.70
2022-07-30T18:52:08.053Z,36.19
2022-07-30T18:54:35.975Z,37.60
2022-07-30T18:57:02.682Z,37.54
2022-07-30T18:59:29.536Z,37.26
2022-07-30T19:01:56.169Z,38.37
2022-07-30T19:04:22.864Z,37.36
2022-07-30T19:06:49.514Z,37.04
2022-07-30T19:09:17.876Z,38.35
2022-07-30T19:11:47.986Z,39.76
2022-07-30T19:14:15.353Z,38.06
2022-07-30T19:16:44.052Z,38.94
2022-07-30T19:19:13.566Z,40.58
2022-07-30T19:21:40.733Z,40.01
2022-07-30T19:24:07.456Z,40.43
2022-07-30T19:26:34.143Z,40.30
2022-07-30T19:29:00.727Z,39.85
2022-07-30T19:31:27.321Z,40.42
2022-07-30T19:33:53.884Z,41.04
2022-07-30T19:36:23.288Z,40.52
2022-07-30T19:38:50.373Z,40.93
2022-07-30T19:41:17.042Z,40.21
2022-07-30T19:43:55.763Z,40.38
2022-07-30T19:46:25.277Z,40.39
2022-07-30T19:48:52.185Z,41.17
2022-07-30T19:51:20.523Z,40.31
2022-07-30T19:53:48.193Z,40.37
2022-07-30T19:56:14.956Z,40.94
2022-07-30T19:58:42.765Z,40.83
2022-07-30T20:01:14.419Z,41.39
2022-07-30T20:03:42.064Z,41.08
2022-07-30T20:06:15.397Z,41.21
2022-07-30T20:08:44.727Z,41.18
2022-07-30T20:11:14.064Z,40.21
2022-07-30T20:13:49.309Z,40.32
2022-07-30T20:16:17.513Z,40.35
2022-07-30T20:18:46.273Z,40.69
2022-07-30T20:21:15.593Z,40.94
2022-07-30T20:23:44.726Z,40.79
2022-07-30T20:26:16.876Z,41.31
2022-07-30T20:28:52.381Z,41.67
2022-07-30T20:31:19.685Z,42.02
2022-07-30T20:33:49.478Z,42.25
2022-07-30T20:36:18.121Z,42.46
2022-07-30T20:38:47.130Z,42.51
2022-07-30T20:41:14.673Z,43.13
2022-07-30T20:43:45.847Z,42.80
2022-07-30T20:46:13.839Z,43.43
2022-07-30T20:48:42.270Z,43.55
2022-07-30T20:51:11.683Z,43.50
2022-07-30T20:53:38.301Z,44.32
2022-07-30T20:56:05.078Z,44.34
2022-07-30T20:58:31.638Z,44.46
2022-07-30T21:01:00.598Z,44.63
2022-07-30T21:03:31.695Z,45.13
2022-07-30T21:05:58.852Z,44.84
2022-07-30T21:08:26.582Z,45.16
2022-07-30T21:10:53.509Z,45.23
2022-07-30T21:13:22.344Z,45.63
2022-07-30T21:16:01.916Z,46.07
2022-07-30T21:18:30.864Z,46.51
2022-07-30T21:20:57.749Z,46.67
2022-07-30T21:23:25.160Z,47.06
2022-07-30T21:26:00.393Z,47.21
2022-07-30T21:28:29.574Z,47.27
2022-07-30T21:30:57.211Z,47.72
2022-07-30T21:33:24.465Z,47.86
2022-07-30T21:35:57.932Z,48.20
2022-07-30T21:38:26.592Z,48.25
2022-07-30T21:40:53.542Z,48.54
2022-07-30T21:43:29.477Z,48.67
2022-07-30T21:46:00.122Z,48.67
2022-07-30T21:48:30.577Z,49.34
2022-07-30T21:50:58.413Z,49.08
2022-07-30T21:53:30.014Z,49.18
2022-07-30T21:56:12.335Z,49.73
2022-07-30T21:58:38.993Z,49.85
2022-07-30T22:01:20.173Z,49.98
2022-07-30T22:04:02.872Z,49.81
2022-07-30T22:06:35.342Z,50.01
2022-07-30T22:09:18.087Z,50.25
2022-07-30T22:11:46.504Z,50.75
2022-07-30T22:14:13.700Z,51.11
2022-07-30T22:19:29.204Z,51.20
2022-07-30T22:21:55.810Z,51.42
2022-07-30T22:24:29.431Z,51.17
2022-07-30T22:26:57.024Z,51.56
2022-07-30T22:29:27.667Z,52.23
2022-07-30T22:32:03.390Z,52.33
2022-07-30T22:34:30.695Z,52.61
2022-07-30T22:36:57.759Z,52.80
2022-07-30T22:39:32.804Z,53.45
2022-07-30T22:42:12.546Z,53.83
2022-07-30T22:44:39.448Z,53.92
2022-07-30T22:47:21.239Z,54.17
2022-07-30T22:49:59.029Z,53.64
2022-07-30T22:52:29.129Z,53.74
2022-07-30T22:54:58.724Z,54.44
2022-07-30T22:57:37.788Z,55.13
2022-07-30T23:00:07.275Z,54.98
2022-07-30T23:02:38.853Z,55.26
2022-07-30T23:05:06.578Z,55.44
2022-07-30T23:07:38.830Z,55.67
2022-07-30T23:10:16.966Z,55.68
2022-07-30T23:12:32.859Z,51.51
2022-07-30T23:12:47.283Z,55.79
2022-07-30T23:15:14.807Z,55.89
2022-07-30T23:17:41.614Z,55.63
2022-07-30T23:20:11.054Z,55.75
2022-07-30T23:22:38.174Z,56.10
2022-07-30T23:25:06.858Z,56.01
2022-07-30T23:27:34.143Z,56.17
2022-07-30T23:30:00.714Z,56.63
2022-07-30T23:32:27.404Z,56.90
2022-07-30T23:34:54.087Z,57.37
2022-07-30T23:37:20.755Z,57.97
2022-07-30T23:39:47.345Z,57.87
2022-07-30T23:42:14.021Z,57.84
2022-07-30T23:44:40.807Z,58.31
2022-07-30T23:47:07.455Z,58.41
2022-07-30T23:49:34.055Z,58.41
2022-07-30T23:52:00.602Z,58.85
2022-07-30T23:54:28.868Z,58.90
2022-07-30T23:56:56.351Z,59.02
2022-07-30T23:59:36.945Z,58.50
